Time;durP1;ratioP1;P1;durP2;ratioP2;P2;SDS_P1;SDS_P2;PMS_P1;PMS_P2;Temp;Humidity;BMP_temperature;BMP_pressure;BME280_temperature;BME280_humidity;BME280_pressure;Samples;Min_cycle;Max_cycle;Signal;HPM_P1;HPM_P2
2022/04/22 00:00:57;;;;;;;15.80;7.85;;;14.60;99.90;;;;;;5129625;27;20436;-80
2022/04/22 00:03:22;;;;;;;12.80;7.22;;;14.60;99.90;;;;;;5133103;27;20031;-80
2022/04/22 00:05:48;;;;;;;12.82;7.82;;;14.60;99.90;;;;;;5128907;27;20543;-81
2022/04/22 00:08:17;;;;;;;11.75;7.80;;;14.60;99.90;;;;;;5129102;27;20110;-81
2022/04/22 00:13:27;;;;;;;14.35;8.32;;;14.60;99.90;;;;;;5128945;27;20064;-81
2022/04/22 00:15:53;;;;;;;13.48;8.70;;;14.60;99.90;;;;;;5132209;27;20027;-81
2022/04/22 00:18:19;;;;;;;14.90;8.52;;;14.60;99.90;;;;;;5132618;27;20043;-79
2022/04/22 00:20:45;;;;;;;12.13;8.23;;;14.60;99.90;;;;;;5132031;27;20077;-81
2022/04/22 00:23:10;;;;;;;12.13;7.75;;;14.50;99.90;;;;;;5132053;27;20042;-81
2022/04/22 00:25:36;;;;;;;12.45;7.45;;;14.40;99.90;;;;;;5127210;27;20024;-81
2022/04/22 00:28:02;;;;;;;12.73;8.30;;;14.40;99.90;;;;;;5132133;27;20379;-81
2022/04/22 00:30:29;;;;;;;13.65;7.93;;;14.40;99.90;;;;;;5132490;27;20035;-81
2022/04/22 00:32:55;;;;;;;13.48;8.10;;;14.40;99.90;;;;;;5132067;27;20054;-81
2022/04/22 00:35:20;;;;;;;14.63;8.15;;;14.40;99.90;;;;;;5125886;28;20459;-81
2022/04/22 00:37:47;;;;;;;11.50;7.88;;;14.30;99.90;;;;;;5127761;28;20029;-80
2022/04/22 00:40:13;;;;;;;10.00;7.80;;;14.30;99.90;;;;;;5131339;27;20023;-81
2022/04/22 00:42:39;;;;;;;13.02;8.27;;;14.30;99.90;;;;;;5115466;27;20085;-80
2022/04/22 00:45:06;;;;;;;11.57;8.10;;;14.30;99.90;;;;;;5132259;27;20103;-80
2022/04/22 00:47:31;;;;;;;12.10;7.88;;;14.30;99.90;;;;;;5131966;28;20042;-81
2022/04/22 00:49:57;;;;;;;13.55;7.43;;;14.20;99.90;;;;;;5124715;28;20027;-81
2022/04/22 00:52:23;;;;;;;14.43;7.75;;;14.20;99.90;;;;;;5131227;27;20035;-81
2022/04/22 00:54:49;;;;;;;10.27;6.55;;;14.20;99.90;;;;;;5132185;27;20040;-81
2022/04/22 00:57:18;;;;;;;14.45;7.53;;;14.10;99.90;;;;;;5132455;28;20024;-81
2022/04/22 00:59:45;;;;;;;12.27;7.80;;;14.10;99.90;;;;;;5133756;27;20066;-81
2022/04/22 01:02:11;;;;;;;10.20;7.30;;;14.10;99.90;;;;;;5135731;27;20043;-81
2022/04/22 01:10:08;;;;;;;12.07;7.82;;;14.00;99.90;;;;;;5121207;27;20030;-81
2022/04/22 01:12:33;;;;;;;11.20;7.30;;;14.10;99.90;;;;;;5136084;27;20035;-81
2022/04/22 01:14:59;;;;;;;11.00;7.43;;;14.00;99.90;;;;;;5134910;27;20134;-82
2022/04/22 01:17:26;;;;;;;9.98;6.22;;;14.00;99.90;;;;;;5135853;27;20054;-82
2022/04/22 01:19:54;;;;;;;10.07;7.13;;;14.00;99.90;;;;;;5132428;27;20093;-83
2022/04/22 01:22:20;;;;;;;11.90;6.93;;;14.00;99.90;;;;;;5122186;27;20744;-83
2022/04/22 01:24:47;;;;;;;11.05;7.28;;;14.00;99.90;;;;;;5135650;27;20052;-83
2022/04/22 01:27:17;;;;;;;12.05;7.22;;;14.00;99.90;;;;;;5136308;27;20027;-82
2022/04/22 01:29:43;;;;;;;12.00;6.47;;;14.00;99.90;;;;;;5121350;27;20032;-83
2022/04/22 01:32:09;;;;;;;11.52;7.05;;;13.90;99.90;;;;;;5122001;27;20042;-83
2022/04/22 01:34:34;;;;;;;10.15;7.32;;;13.90;99.90;;;;;;5135425;27;20387;-83
2022/04/22 01:37:00;;;;;;;9.10;5.90;;;13.90;99.90;;;;;;5135481;27;20030;-83
2022/04/22 01:39:29;;;;;;;12.63;6.40;;;13.90;99.90;;;;;;5136504;27;20034;-83
2022/04/22 01:41:55;;;;;;;10.30;7.05;;;13.80;99.90;;;;;;5135549;27;20064;-83
2022/04/22 01:44:20;;;;;;;11.95;6.30;;;13.80;99.90;;;;;;5135331;27;20027;-83
2022/04/22 01:46:46;;;;;;;14.30;6.43;;;13.70;99.90;;;;;;5135600;27;20023;-83
2022/04/22 01:49:12;;;;;;;10.27;6.35;;;13.70;99.90;;;;;;5128494;27;20034;-83
2022/04/22 01:51:38;;;;;;;14.43;6.53;;;13.70;99.90;;;;;;5134670;27;20489;-83
2022/04/22 01:54:04;;;;;;;9.43;6.20;;;13.70;99.90;;;;;;5135898;27;20031;-83
2022/04/22 01:56:29;;;;;;;9.68;6.43;;;13.80;99.90;;;;;;5135060;27;20092;-83
2022/04/22 01:58:55;;;;;;;9.75;6.15;;;13.80;99.90;;;;;;5135027;27;20034;-83
2022/04/22 02:01:21;;;;;;;11.32;6.20;;;13.80;99.90;;;;;;5135022;27;20527;-82
2022/04/22 02:03:47;;;;;;;10.45;6.30;;;13.80;99.90;;;;;;5134769;27;20031;-83
2022/04/22 02:06:12;;;;;;;11.00;6.70;;;13.70;99.90;;;;;;5134721;27;20695;-83
2022/04/22 02:08:38;;;;;;;9.50;6.80;;;13.70;99.90;;;;;;5134982;27;20023;-83
2022/04/22 02:11:05;;;;;;;8.82;5.97;;;13.70;99.90;;;;;;5133739;27;20398;-83
2022/04/22 02:13:35;;;;;;;8.65;6.50;;;13.60;99.90;;;;;;5134679;27;20068;-83
2022/04/22 02:16:05;;;;;;;10.40;6.63;;;13.60;99.90;;;;;;5119544;27;20023;-84
2022/04/22 02:18:31;;;;;;;12.55;6.68;;;13.60;99.90;;;;;;5135245;27;20379;-84
2022/04/22 02:20:57;;;;;;;12.52;7.20;;;13.60;99.90;;;;;;5134567;27;20035;-84
2022/04/22 02:23:22;;;;;;;10.75;8.23;;;13.60;99.90;;;;;;5134724;27;20123;-83
2022/04/22 02:25:48;;;;;;;11.27;8.57;;;13.60;99.90;;;;;;5134409;27;20050;-84
2022/04/22 02:28:32;;;;;;;15.35;10.00;;;13.50;99.90;;;;;;5134590;27;20015;-83
2022/04/22 02:31:11;;;;;;;15.70;10.05;;;13.60;99.90;;;;;;5118280;27;20031;-83
2022/04/22 02:33:41;;;;;;;14.15;9.25;;;13.60;99.90;;;;;;5131605;27;20034;-83
2022/04/22 02:36:08;;;;;;;12.65;7.38;;;13.50;99.90;;;;;;5131994;27;20056;-83
2022/04/22 02:38:34;;;;;;;11.82;7.60;;;13.40;99.90;;;;;;5125310;27;20080;-83
2022/04/22 02:46:30;;;;;;;11.23;8.05;;;13.20;99.90;;;;;;5122715;27;20581;-83
2022/04/22 02:49:00;;;;;;;11.35;7.63;;;13.20;99.90;;;;;;5117101;27;20027;-83
2022/04/22 02:51:27;;;;;;;13.80;8.07;;;13.20;99.90;;;;;;5130458;27;20391;-83
2022/04/22 02:53:53;;;;;;;14.20;9.95;;;13.10;99.90;;;;;;5134215;27;20027;-83
2022/04/22 02:56:21;;;;;;;14.77;9.68;;;13.20;99.90;;;;;;5133823;27;20019;-82
2022/04/22 02:58:47;;;;;;;16.25;10.73;;;13.10;99.90;;;;;;5133838;27;20094;-84
2022/04/22 03:01:16;;;;;;;21.13;12.43;;;13.10;99.90;;;;;;5134536;27;20023;-83
2022/04/22 03:03:50;;;;;;;23.20;15.27;;;13.10;99.90;;;;;;5133040;27;20489;-83
2022/04/22 03:06:17;;;;;;;23.75;15.25;;;13.10;99.90;;;;;;5117442;27;20036;-84
2022/04/22 03:08:46;;;;;;;25.35;15.10;;;13.10;99.90;;;;;;5122068;27;20061;-82
2022/04/22 03:11:20;;;;;;;28.13;16.05;;;13.20;99.90;;;;;;5127856;27;20031;-82
2022/04/22 03:13:45;;;;;;;;;;;13.10;99.90;;;;;;5133633;27;20027;-83
2022/04/22 03:16:11;;;;;;;29.10;18.20;;;13.10;99.90;;;;;;5133407;27;19915;-84
2022/04/22 03:18:37;;;;;;;29.88;18.23;;;13.10;99.90;;;;;;5116505;27;20683;-84
2022/04/22 03:21:03;;;;;;;28.48;19.63;;;13.10;99.90;;;;;;5134228;27;20118;-83
2022/04/22 03:23:29;;;;;;;27.90;18.73;;;13.20;99.90;;;;;;5133313;27;20054;-83
2022/04/22 03:25:54;;;;;;;24.38;16.85;;;13.10;99.90;;;;;;5133026;27;20026;-83
2022/04/22 03:28:21;;;;;;;25.17;17.70;;;13.00;99.90;;;;;;5133244;27;20027;-83
2022/04/22 03:30:48;;;;;;;23.27;16.02;;;13.10;99.90;;;;;;5132875;27;20059;-83
2022/04/22 03:33:17;;;;;;;21.67;15.93;;;13.10;99.90;;;;;;5133766;27;20039;-84
2022/04/22 03:35:50;;;;;;;24.73;16.35;;;13.10;99.90;;;;;;5133594;27;20173;-83
2022/04/22 03:38:18;;;;;;;23.08;15.73;;;13.10;99.90;;;;;;5133106;27;20033;-83
2022/04/22 03:40:47;;;;;;;21.17;15.07;;;13.10;99.90;;;;;;5133113;27;20404;-84
2022/04/22 03:43:17;;;;;;;29.10;17.02;;;13.10;99.90;;;;;;5132993;27;20051;-83
2022/04/22 03:45:46;;;;;;;24.92;16.67;;;13.10;99.90;;;;;;5133647;27;20106;-84
2022/04/22 03:48:15;;;;;;;23.02;16.70;;;13.10;99.90;;;;;;5122445;27;20500;-83
2022/04/22 03:50:41;;;;;;;24.52;17.25;;;13.10;99.90;;;;;;5121268;27;20098;-83
2022/04/22 03:53:14;;;;;;;26.13;17.92;;;13.10;99.90;;;;;;5126531;27;20378;-84
2022/04/22 03:55:41;;;;;;;20.75;16.23;;;13.00;99.90;;;;;;5131376;27;20019;-83
2022/04/22 03:58:16;;;;;;;21.65;16.08;;;13.10;99.90;;;;;;5117880;27;20080;-83
2022/04/22 04:00:48;;;;;;;19.60;14.00;;;13.10;99.90;;;;;;5132973;27;20115;-83
2022/04/22 04:03:19;;;;;;;20.15;13.00;;;13.20;99.90;;;;;;5117599;27;20038;-83
2022/04/22 04:05:48;;;;;;;18.58;11.77;;;13.30;99.90;;;;;;5131398;27;20043;-83
2022/04/22 04:08:14;;;;;;;18.02;12.55;;;13.30;99.90;;;;;;5132674;27;20023;-82
2022/04/22 04:16:09;;;;;;;;;;;13.30;99.90;;;;;;5118048;27;20038;-85
2022/04/22 04:18:37;;;;;;;13.45;9.93;;;13.30;99.90;;;;;;5116440;27;19908;-84
2022/04/22 04:23:49;;;;;;;12.02;9.30;;;13.20;99.90;;;;;;5132862;27;20030;-83
2022/04/22 04:26:16;;;;;;;11.50;9.45;;;13.30;99.90;;;;;;5132603;27;20033;-84
2022/04/22 04:28:43;;;;;;;17.52;12.38;;;13.20;99.90;;;;;;5132406;27;20030;-84
2022/04/22 04:31:11;;;;;;;18.50;12.73;;;13.10;99.90;;;;;;5132186;28;20035;-83
2022/04/22 04:33:37;;;;;;;14.95;12.05;;;12.90;99.90;;;;;;5131587;27;20431;-83
2022/04/22 04:36:05;;;;;;;18.65;12.55;;;12.80;99.90;;;;;;5119864;27;20038;-83
2022/04/22 04:38:31;;;;;;;15.45;12.18;;;12.70;99.90;;;;;;5129060;28;20019;-83
2022/04/22 04:40:57;;;;;;;14.85;12.73;;;12.70;99.90;;;;;;5132129;28;20102;-83
2022/04/22 04:43:23;;;;;;;20.05;14.82;;;12.60;99.90;;;;;;5132397;28;20058;-84
2022/04/22 04:45:50;;;;;;;15.93;12.32;;;12.60;99.90;;;;;;5132028;27;20064;-84
2022/04/22 04:48:19;;;;;;;11.48;8.75;;;12.50;99.90;;;;;;5127409;27;20501;-83
2022/04/22 04:50:49;;;;;;;13.32;9.98;;;12.50;99.90;;;;;;5130727;28;20027;-83
2022/04/22 04:53:16;;;;;;;13.98;9.85;;;12.50;99.90;;;;;;5132062;27;20065;-84
2022/04/22 04:55:42;;;;;;;12.60;9.25;;;12.50;99.90;;;;;;5132041;27;20539;-83
2022/04/22 04:58:08;;;;;;;12.98;9.38;;;12.50;99.90;;;;;;5132700;27;20051;-84
2022/04/22 05:00:34;;;;;;;12.45;8.73;;;12.50;99.90;;;;;;5115366;28;20620;-82
2022/04/22 05:03:00;;;;;;;13.18;9.13;;;12.50;99.90;;;;;;5131837;27;20031;-77
2022/04/22 05:05:26;;;;;;;13.88;8.70;;;12.50;99.90;;;;;;5132204;28;20027;-79
2022/04/22 05:07:55;;;;;;;10.63;7.70;;;12.50;99.90;;;;;;5131567;27;20023;-77
2022/04/22 05:10:21;;;;;;;10.98;7.25;;;12.40;99.90;;;;;;5131689;27;20072;-83
2022/04/22 05:12:50;;;;;;;10.43;7.82;;;12.50;99.90;;;;;;5131902;27;20023;-83
2022/04/22 05:15:22;;;;;;;13.82;7.93;;;12.50;99.90;;;;;;5117347;27;20036;-82
2022/04/22 05:17:49;;;;;;;10.10;8.18;;;12.50;99.90;;;;;;5130970;28;20473;-82
2022/04/22 05:20:17;;;;;;;10.43;7.97;;;12.40;99.90;;;;;;5131550;28;20039;-80
2022/04/22 05:22:46;;;;;;;13.77;8.25;;;12.40;99.90;;;;;;5131653;27;20021;-73
2022/04/22 05:25:16;;;;;;;10.50;7.53;;;12.50;99.90;;;;;;5131625;27;20034;-77
2022/04/22 05:27:42;;;;;;;11.68;8.73;;;12.50;99.90;;;;;;5131194;27;20031;-77
2022/04/22 05:32:54;;;;;;;11.75;8.00;;;12.60;99.90;;;;;;5131442;28;20043;-76
2022/04/22 05:35:22;;;;;;;10.82;7.70;;;12.70;99.90;;;;;;5131596;28;20027;-76
2022/04/22 05:37:49;;;;;;;10.88;7.60;;;12.70;99.90;;;;;;5131275;27;20023;-76
2022/04/22 05:40:20;;;;;;;10.32;8.38;;;12.70;99.90;;;;;;5131226;27;20023;-77
2022/04/22 05:42:47;;;;;;;14.80;9.02;;;12.70;99.90;;;;;;5126086;27;20552;-76
2022/04/22 05:45:17;;;;;;;11.20;8.75;;;12.80;99.90;;;;;;5131778;27;20389;-77
2022/04/22 05:47:43;;;;;;;14.05;8.52;;;12.90;99.90;;;;;;5133662;27;20023;-79
2022/04/22 05:50:12;;;;;;;16.75;9.10;;;12.90;99.90;;;;;;5128271;27;20102;-77
2022/04/22 05:52:38;;;;;;;12.85;8.65;;;13.00;99.90;;;;;;5134056;27;20027;-77
2022/04/22 05:55:08;;;;;;;10.80;8.27;;;13.10;99.90;;;;;;5119036;27;20034;-77
2022/04/22 05:57:35;;;;;;;11.95;9.10;;;13.10;99.90;;;;;;5134130;27;20411;-77
2022/04/22 06:00:04;;;;;;;13.07;9.52;;;13.20;99.90;;;;;;5135388;27;20040;-77
2022/04/22 06:02:30;;;;;;;14.80;8.82;;;13.20;99.90;;;;;;5134446;27;20023;-77
2022/04/22 06:04:55;;;;;;;12.18;8.60;;;13.20;99.90;;;;;;5134451;27;20023;-81
2022/04/22 06:07:21;;;;;;;11.63;8.50;;;13.20;99.90;;;;;;5134435;27;20019;-75
2022/04/22 06:12:32;;;;;;;12.63;8.65;;;13.30;99.90;;;;;;5130790;27;20099;-76
2022/04/22 06:15:02;;;;;;;13.60;8.85;;;13.40;99.90;;;;;;5134513;27;20027;-76
2022/04/22 06:17:28;;;;;;;17.70;9.18;;;13.40;99.90;;;;;;5133453;27;20061;-77
2022/04/22 06:19:54;;;;;;;13.43;8.93;;;13.50;99.90;;;;;;5133443;27;20485;-76
2022/04/22 06:22:20;;;;;;;12.70;9.45;;;13.50;99.90;;;;;;5134023;27;20035;-76
2022/04/22 06:24:46;;;;;;;11.68;8.55;;;13.50;99.90;;;;;;5134304;27;20027;-77
2022/04/22 06:27:12;;;;;;;15.63;9.23;;;13.50;99.90;;;;;;5133504;27;20374;-78
2022/04/22 06:29:38;;;;;;;11.90;8.77;;;13.50;99.90;;;;;;5133470;27;20068;-76
2022/04/22 06:32:04;;;;;;;12.60;8.32;;;13.60;99.90;;;;;;5128762;27;20042;-77
2022/04/22 06:34:31;;;;;;;15.80;8.77;;;13.70;99.90;;;;;;5121859;27;20019;-77
2022/04/22 06:36:57;;;;;;;12.82;9.00;;;13.80;99.90;;;;;;5133372;27;20035;-78
2022/04/22 06:39:23;;;;;;;15.50;8.45;;;13.90;99.90;;;;;;5133963;27;20007;-78
2022/04/22 06:47:18;;;;;;;14.70;8.05;;;14.10;99.90;;;;;;5132664;27;20035;-78
2022/04/22 06:49:47;;;;;;;12.88;8.30;;;14.30;99.90;;;;;;5125853;27;20050;-76
2022/04/22 06:52:16;;;;;;;11.13;8.00;;;14.30;99.90;;;;;;5132759;27;20031;-77
2022/04/22 06:54:42;;;;;;;14.25;8.90;;;14.40;99.90;;;;;;5115897;27;20020;-77
2022/04/22 06:57:09;;;;;;;13.90;8.70;;;14.40;99.90;;;;;;5133109;27;20080;-77
2022/04/22 06:59:35;;;;;;;14.57;8.10;;;14.40;99.90;;;;;;5133121;27;20024;-77
2022/04/22 07:02:01;;;;;;;12.20;8.98;;;14.50;99.90;;;;;;5133286;27;20034;-77
2022/04/22 07:04:27;;;;;;;12.02;9.07;;;14.50;99.90;;;;;;5133770;27;20027;-77
2022/04/22 07:06:53;;;;;;;16.17;10.60;;;14.60;99.90;;;;;;5133429;27;20029;-77
2022/04/22 07:09:19;;;;;;;13.82;9.70;;;14.70;99.90;;;;;;5133820;27;20062;-77
2022/04/22 07:11:45;;;;;;;19.92;9.95;;;14.80;99.90;;;;;;5122402;27;20472;-77
2022/04/22 07:14:11;;;;;;;17.55;10.05;;;14.80;99.90;;;;;;5126990;27;20035;-77
2022/04/22 07:16:48;;;;;;;14.60;10.45;;;14.90;99.90;;;;;;5133009;27;20094;-77
2022/04/22 07:19:17;;;;;;;16.30;10.15;;;15.00;99.90;;;;;;5132817;27;20062;-77
2022/04/22 07:21:43;;;;;;;15.57;9.85;;;15.00;99.90;;;;;;5133050;27;20027;-77
2022/04/22 07:24:09;;;;;;;20.67;10.38;;;15.00;99.90;;;;;;5132801;27;20022;-76
2022/04/22 07:26:37;;;;;;;22.33;9.63;;;15.10;99.90;;;;;;5133139;27;20062;-77
2022/04/22 07:29:07;;;;;;;21.33;10.00;;;15.20;99.90;;;;;;5132670;27;20169;-77
2022/04/22 07:31:33;;;;;;;16.80;9.88;;;15.30;99.90;;;;;;5132826;27;20034;-77
2022/04/22 07:33:59;;;;;;;13.98;9.95;;;15.40;99.90;;;;;;5131363;27;20098;-77
2022/04/22 07:36:25;;;;;;;13.38;9.27;;;15.50;99.90;;;;;;5117933;27;20031;-76
2022/04/22 07:38:51;;;;;;;14.75;10.98;;;15.50;99.90;;;;;;5131622;27;20026;-78
2022/04/22 07:41:25;;;;;;;11.70;9.65;;;15.40;99.90;;;;;;5132532;27;20027;-78
2022/04/22 07:46:46;;;;;;;12.88;10.43;;;15.50;99.90;;;;;;5132993;27;20060;-79
2022/04/22 07:49:12;;;;;;;14.02;9.13;;;15.60;99.90;;;;;;5133089;27;20027;-79
2022/04/22 07:51:39;;;;;;;11.02;9.18;;;15.70;99.90;;;;;;5115917;27;20035;-79
2022/04/22 07:54:05;;;;;;;14.25;9.45;;;15.80;99.90;;;;;;5132581;27;20015;-78
2022/04/22 07:56:31;;;;;;;19.67;10.35;;;15.90;99.90;;;;;;5132409;27;20034;-78
2022/04/22 07:58:56;;;;;;;17.70;10.23;;;16.00;99.90;;;;;;5132305;27;20019;-79
2022/04/22 08:01:23;;;;;;;15.05;9.18;;;16.10;99.90;;;;;;5127991;27;20026;-79
2022/04/22 08:03:49;;;;;;;13.50;9.73;;;16.20;99.90;;;;;;5114768;27;20033;-79
2022/04/22 08:06:15;;;;;;;16.55;11.68;;;16.20;99.90;;;;;;5116939;27;20036;-79
2022/04/22 08:08:41;;;;;;;20.20;12.68;;;16.20;99.90;;;;;;5115010;27;20020;-79
2022/04/22 08:11:07;;;;;;;17.45;11.23;;;16.20;99.90;;;;;;5125304;27;20045;-79
2022/04/22 08:13:35;;;;;;;20.10;12.43;;;16.20;99.90;;;;;;5132116;27;20084;-79
2022/04/22 08:16:00;;;;;;;17.73;12.45;;;16.30;99.90;;;;;;5132594;27;20175;-79
2022/04/22 08:18:26;;;;;;;19.77;12.82;;;16.30;99.90;;;;;;5132615;27;20113;-79
2022/04/22 08:20:52;;;;;;;17.08;11.15;;;16.30;99.90;;;;;;5132091;27;20031;-78
2022/04/22 08:23:20;;;;;;;20.15;11.23;;;16.30;99.90;;;;;;5131344;27;20023;-79
2022/04/22 08:25:46;;;;;;;17.23;11.40;;;16.40;99.90;;;;;;5131813;27;20027;-79
2022/04/22 08:28:11;;;;;;;16.55;11.43;;;16.40;99.90;;;;;;5132344;27;20099;-79
2022/04/22 08:30:37;;;;;;;16.40;11.00;;;16.60;99.90;;;;;;5115558;27;20028;-79
2022/04/22 08:33:03;;;;;;;15.38;10.40;;;16.70;99.90;;;;;;5132192;27;20023;-79
2022/04/22 08:35:29;;;;;;;17.17;12.00;;;16.80;99.90;;;;;;5131644;28;20412;-79
2022/04/22 08:37:54;;;;;;;17.40;10.80;;;16.70;99.90;;;;;;5131700;28;20023;-79
2022/04/22 08:40:20;;;;;;;13.73;10.63;;;16.80;99.90;;;;;;5131880;28;20122;-79
2022/04/22 08:42:48;;;;;;;16.33;10.80;;;16.80;99.90;;;;;;5131868;27;20102;-78
2022/04/22 08:45:14;;;;;;;15.18;11.18;;;16.80;99.90;;;;;;5132259;27;20024;-79
2022/04/22 08:50:30;;;;;;;16.48;10.60;;;17.20;99.90;;;;;;5131998;28;20091;-79
2022/04/22 08:53:07;;;;;;;15.48;10.65;;;17.40;99.90;;;;;;5127218;28;20019;-79
2022/04/22 08:55:34;;;;;;;16.90;10.07;;;17.40;99.90;;;;;;5131412;28;20015;-78
2022/04/22 08:58:05;;;;;;;17.50;10.02;;;17.40;99.90;;;;;;5131941;28;20030;-79
2022/04/22 09:00:35;;;;;;;15.63;10.25;;;17.30;99.90;;;;;;5128260;28;20023;-79
2022/04/22 09:03:01;;;;;;;13.30;9.77;;;17.30;99.90;;;;;;5119187;28;20077;-79
2022/04/22 09:05:29;;;;;;;15.20;10.15;;;17.20;99.90;;;;;;5126929;28;20434;-79
2022/04/22 09:07:56;;;;;;;13.38;9.45;;;17.40;99.90;;;;;;5128792;28;20406;-79
2022/04/22 09:10:22;;;;;;;14.43;9.70;;;17.50;99.90;;;;;;5118278;28;20028;-79
2022/04/22 09:12:56;;;;;;;13.82;9.90;;;17.60;99.90;;;;;;5131551;27;20049;-79
2022/04/22 09:15:24;;;;;;;15.18;10.20;;;17.70;99.90;;;;;;5132006;27;20016;-79
2022/04/22 09:17:50;;;;;;;13.82;9.82;;;17.80;99.90;;;;;;5131228;28;20027;-79
2022/04/22 09:20:16;;;;;;;13.05;9.80;;;17.90;99.90;;;;;;5132112;27;20043;-79
2022/04/22 09:22:45;;;;;;;16.88;9.27;;;18.00;99.90;;;;;;5135659;27;20469;-79
2022/04/22 09:25:11;;;;;;;13.30;9.30;;;18.00;99.90;;;;;;5135415;27;20109;-79
2022/04/22 09:27:44;;;;;;;15.98;8.65;;;18.00;99.90;;;;;;5135536;27;20035;-79
2022/04/22 09:30:12;;;;;;;13.93;9.68;;;18.20;99.90;;;;;;5119647;27;20478;-79
2022/04/22 09:32:41;;;;;;;14.38;9.95;;;18.30;99.90;;;;;;5132539;27;20043;-79
2022/04/22 09:35:17;;;;;;;12.77;8.77;;;18.30;99.90;;;;;;5134598;27;20752;-79
2022/04/22 09:43:49;;;;;;;14.60;9.68;;;18.50;99.90;;;;;;5134984;27;20025;-79
2022/04/22 09:46:27;;;;;;;14.38;9.15;;;18.50;99.90;;;;;;5134884;27;20492;-79
2022/04/22 09:48:54;;;;;;;12.77;8.93;;;18.40;99.90;;;;;;5117785;27;20062;-77
2022/04/22 09:51:22;;;;;;;14.10;8.75;;;18.50;99.90;;;;;;5135404;27;20122;-79
2022/04/22 09:54:01;;;;;;;13.55;9.05;;;18.70;99.90;;;;;;5135263;27;20106;-79
2022/04/22 09:56:28;;;;;;;11.68;8.07;;;18.80;99.90;;;;;;5134651;27;20019;-79
2022/04/22 09:58:54;;;;;;;13.75;8.52;;;19.10;99.90;;;;;;5134767;27;20401;-79
2022/04/22 10:01:19;;;;;;;13.73;8.75;;;19.10;99.90;;;;;;5130810;27;20038;-80
2022/04/22 10:03:46;;;;;;;14.43;8.25;;;19.10;99.90;;;;;;5134103;27;20097;-80
2022/04/22 10:06:12;;;;;;;10.13;8.07;;;19.30;99.90;;;;;;5135074;27;20491;-80
2022/04/22 10:08:39;;;;;;;12.77;7.90;;;19.20;99.90;;;;;;5121260;27;20478;-80
2022/04/22 10:11:06;;;;;;;11.55;7.72;;;19.10;99.90;;;;;;5127217;27;20434;-80
2022/04/22 10:13:48;;;;;;;12.48;8.13;;;19.20;99.90;;;;;;5134361;27;20030;-80
2022/04/22 10:16:16;;;;;;;10.60;7.47;;;19.30;99.90;;;;;;5120210;27;20019;-80
2022/04/22 10:18:43;;;;;;;13.27;8.65;;;19.10;99.90;;;;;;5134220;27;20100;-80
2022/04/22 10:21:10;;;;;;;12.32;7.13;;;19.30;99.90;;;;;;5134918;27;20034;-80
2022/04/22 10:23:36;;;;;;;11.55;8.00;;;19.50;99.90;;;;;;5134201;27;20027;-79
2022/04/22 10:26:05;;;;;;;10.20;7.18;;;19.50;99.90;;;;;;5130509;27;20020;-79
2022/04/22 10:28:32;;;;;;;14.05;7.47;;;19.40;99.90;;;;;;5122109;27;20031;-79
2022/04/22 10:31:01;;;;;;;11.73;7.05;;;19.60;99.90;;;;;;5133298;27;20421;-80
2022/04/22 10:33:37;;;;;;;11.90;8.05;;;19.70;99.90;;;;;;5129651;27;20072;-80
2022/04/22 10:36:05;;;;;;;13.00;8.27;;;19.60;99.90;;;;;;5133670;27;20389;-80
2022/04/22 10:38:39;;;;;;;10.50;6.82;;;19.50;99.90;;;;;;5133874;27;20027;-79
2022/04/22 10:41:17;;;;;;;12.82;7.88;;;19.60;99.90;;;;;;5134054;27;20553;-80
2022/04/22 10:47:13;;;;;;;10.68;7.13;;;19.70;99.90;;;;;;5133613;27;20117;-80
2022/04/22 10:49:18;;;;;;;10.30;7.72;;;19.90;99.90;;;;;;5132718;27;20030;-79
2022/04/22 10:52:02;;;;;;;11.35;7.10;;;20.20;99.90;;;;;;5133683;27;20035;-80
2022/04/22 10:54:51;;;;;;;9.88;6.53;;;20.20;99.90;;;;;;5130174;27;20020;-76
2022/04/22 10:57:19;;;;;;;9.88;6.90;;;20.30;99.30;;;;;;5106809;27;20399;-78
2022/04/22 10:59:45;;;;;;;10.13;6.97;;;20.30;97.90;;;;;;5132046;27;20474;-80
2022/04/22 11:02:28;;;;;;;13.15;7.35;;;20.10;97.70;;;;;;5132931;27;20027;-79
2022/04/22 11:05:19;;;;;;;12.20;6.65;;;20.20;98.50;;;;;;5130271;27;20042;-79
2022/04/22 11:07:51;;;;;;;9.90;6.40;;;20.30;98.50;;;;;;5123516;27;20015;-84
2022/04/22 11:10:23;;;;;;;11.20;7.22;;;20.30;97.20;;;;;;5134036;27;20023;-83
2022/04/22 11:12:57;;;;;;;13.13;7.00;;;20.50;98.30;;;;;;5133344;27;20035;-83
2022/04/22 11:15:46;;;;;;;10.15;6.70;;;20.60;98.30;;;;;;5133839;27;20489;-83
2022/04/22 11:18:16;;;;;;;11.18;6.22;;;20.60;98.30;;;;;;5117450;27;20044;-83
2022/04/22 11:20:44;;;;;;;12.23;6.32;;;20.50;98.70;;;;;;5131487;27;20050;-83
2022/04/22 11:23:15;;;;;;;12.80;6.10;;;20.40;97.70;;;;;;5124255;27;20047;-83
2022/04/22 11:25:43;;;;;;;8.25;5.70;;;20.60;98.70;;;;;;5122575;27;20019;-83
2022/04/22 11:28:09;;;;;;;12.38;6.63;;;20.80;98.10;;;;;;5133382;27;20019;-83
2022/04/22 11:30:36;;;;;;;9.18;5.78;;;20.80;96.80;;;;;;5132839;27;20102;-83
2022/04/22 11:33:23;;;;;;;10.95;5.60;;;20.70;96.90;;;;;;5117782;27;20505;-83
2022/04/22 11:35:56;;;;;;;9.02;5.97;;;21.00;97.80;;;;;;5131825;27;20011;-83
2022/04/22 11:38:23;;;;;;;10.07;6.38;;;21.00;99.20;;;;;;5132671;27;20031;-82
2022/04/22 11:40:52;;;;;;;9.73;6.30;;;20.90;98.70;;;;;;5132381;27;20061;-84
2022/04/22 11:43:18;;;;;;;10.48;5.85;;;20.90;98.00;;;;;;5132335;27;20504;-83
2022/04/22 11:45:49;;;;;;;11.18;5.20;;;21.00;97.10;;;;;;5116012;27;20481;-83
2022/04/22 11:48:20;;;;;;;11.45;5.20;;;21.20;96.90;;;;;;5117722;27;20024;-83
2022/04/22 11:50:46;;;;;;;8.05;5.20;;;21.30;96.80;;;;;;5117087;27;20032;-85
2022/04/22 11:53:20;;;;;;;10.18;4.95;;;21.30;95.00;;;;;;5126609;27;20030;-82
2022/04/22 11:55:47;;;;;;;9.07;5.45;;;21.10;93.90;;;;;;5132755;27;20027;-84
2022/04/22 11:58:17;;;;;;;9.80;5.90;;;21.10;95.80;;;;;;5132755;27;20031;-84
2022/04/22 12:06:17;;;;;;;13.18;6.03;;;21.30;96.20;;;;;;5117504;27;20412;-84
2022/04/22 12:08:56;;;;;;;13.63;5.60;;;21.00;95.20;;;;;;5116385;27;20035;-84
2022/04/22 12:11:24;;;;;;;8.98;5.40;;;21.10;96.90;;;;;;5127653;27;20501;-84
2022/04/22 12:13:51;;;;;;;7.65;5.00;;;21.20;96.50;;;;;;5132455;27;20030;-84
2022/04/22 12:16:28;;;;;;;8.55;5.72;;;21.30;95.90;;;;;;5132967;27;20023;-85
2022/04/22 12:18:55;;;;;;;7.82;4.97;;;21.10;94.90;;;;;;5132486;27;20061;-85
2022/04/22 12:21:23;;;;;;;13.13;5.15;;;21.30;93.70;;;;;;5122813;27;20117;-84
2022/04/22 12:23:51;;;;;;;8.38;5.28;;;21.20;93.40;;;;;;5122450;27;20046;-85
2022/04/22 12:26:21;;;;;;;8.98;5.30;;;21.20;93.20;;;;;;5127939;27;20026;-84
2022/04/22 12:29:08;;;;;;;9.27;4.32;;;21.30;92.50;;;;;;5128881;27;20069;-84
2022/04/22 12:31:34;;;;;;;9.75;4.10;;;21.40;92.20;;;;;;5127846;27;20039;-85
2022/04/22 12:34:05;;;;;;;6.97;4.50;;;21.20;91.80;;;;;;5128697;27;20027;-86
2022/04/22 12:36:38;;;;;;;7.40;4.57;;;21.10;91.00;;;;;;5128690;28;20095;-86
2022/04/22 12:39:08;;;;;;;6.07;4.10;;;21.00;91.60;;;;;;5132251;28;20452;-85
2022/04/22 12:41:47;;;;;;;5.95;3.97;;;21.00;90.40;;;;;;5128532;27;20027;-85
2022/04/22 12:44:17;;;;;;;8.73;4.10;;;21.10;91.50;;;;;;5125840;28;20083;-85
2022/04/22 12:52:29;;;;;;;8.75;4.32;;;21.10;89.50;;;;;;5114985;28;20038;-85
2022/04/22 12:55:08;;;;;;;6.10;4.10;;;21.10;88.00;;;;;;5129391;27;20428;-85
2022/04/22 12:57:36;;;;;;;6.50;3.97;;;21.10;82.90;;;;;;5132120;27;20485;-85
2022/04/22 13:00:17;;;;;;;7.47;3.90;;;21.10;84.40;;;;;;5136019;27;20041;-85
2022/04/22 13:02:46;;;;;;;6.45;3.90;;;21.20;88.90;;;;;;5132980;27;20068;-85
2022/04/22 13:05:25;;;;;;;7.30;4.30;;;21.40;76.90;;;;;;5134408;27;20026;-85
2022/04/22 13:07:51;;;;;;;6.78;3.85;;;21.50;78.20;;;;;;5134036;27;20026;-72
2022/04/22 13:10:22;;;;;;;8.80;4.10;;;21.70;80.00;;;;;;5129755;27;20033;-72
2022/04/22 13:12:49;;;;;;;6.80;4.05;;;21.40;80.10;;;;;;5128923;27;20041;-73
2022/04/22 13:15:20;;;;;;;7.68;4.28;;;21.30;83.60;;;;;;5117098;27;20023;-72
2022/04/22 13:17:48;;;;;;;9.85;5.00;;;21.40;82.30;;;;;;5124239;27;20536;-73
2022/04/22 13:20:16;;;;;;;9.18;4.25;;;21.40;90.10;;;;;;5122297;27;20059;-72
2022/04/22 13:22:42;;;;;;;9.43;3.97;;;21.40;91.00;;;;;;5116515;27;20497;-73
2022/04/22 13:25:10;;;;;;;5.75;3.83;;;21.30;87.10;;;;;;5112851;27;20047;-72
2022/04/22 13:27:36;;;;;;;7.45;4.15;;;21.10;87.20;;;;;;5112409;27;20277;-73
2022/04/22 13:30:03;;;;;;;10.70;3.75;;;21.20;88.20;;;;;;5117534;27;20075;-72
2022/04/22 13:32:29;;;;;;;7.65;3.83;;;21.40;86.80;;;;;;5116614;27;20040;-73
2022/04/22 13:34:54;;;;;;;6.30;3.72;;;21.10;87.40;;;;;;5115475;27;20470;-72
2022/04/22 13:37:20;;;;;;;10.00;3.90;;;21.10;89.20;;;;;;5114855;27;20032;-72
2022/04/22 13:39:46;;;;;;;7.32;3.88;;;20.90;86.50;;;;;;5114109;27;20038;-73